Time;durP1;ratioP1;P1;durP2;ratioP2;P2;SDS_P1;SDS_P2;PMS_P1;PMS_P2;Temp;Humidity;BMP_temperature;BMP_pressure;BME280_temperature;BME280_humidity;BME280_pressure;Samples;Min_cycle;Max_cycle;Signal;HPM_P1;HPM_P2
2022/03/16 00:01:15;;;;;;;22.15;14.80;;;;;;;;;;5074284;27;95289;-74
2022/03/16 00:03:41;;;;;;;21.42;14.93;;;;;;;;;;5074852;27;96731;-74
2022/03/16 00:06:08;;;;;;;26.98;14.95;;;;;;;;;;5055581;27;96690;-75
2022/03/16 00:08:34;;;;;;;26.55;14.77;;;;;;;;;;5074875;27;95097;-74
2022/03/16 00:11:00;;;;;;;25.38;14.18;;;;;;;;;;5074077;27;96785;-75
2022/03/16 00:13:27;;;;;;;20.83;13.95;;;;;;;;;;5077874;27;97275;-74
2022/03/16 00:15:53;;;;;;;20.60;14.02;;;;;;;;;;5074355;27;97467;-75
2022/03/16 00:18:19;;;;;;;22.33;15.43;;;;;;;;;;5073763;27;97450;-74
2022/03/16 00:20:47;;;;;;;23.88;14.63;;;;;;;;;;5073183;27;95367;-74
2022/03/16 00:23:14;;;;;;;24.27;14.73;;;;;;;;;;5074540;27;96763;-75
2022/03/16 00:25:41;;;;;;;23.13;15.43;;;;;;;;;;5072357;27;97143;-74
2022/03/16 00:28:07;;;;;;;22.67;14.80;;;;;;;;;;5074228;27;95331;-76
2022/03/16 00:30:34;;;;;;;21.27;14.77;;;;;;;;;;5074704;27;96756;-73
2022/03/16 00:33:01;;;;;;;22.98;15.05;;;;;;;;;;5076684;27;97454;-74
2022/03/16 00:35:27;;;;;;;26.00;15.93;;;;;;;;;;5074024;27;96576;-75
2022/03/16 00:37:53;;;;;;;27.42;16.10;;;;;;;;;;5074014;27;96246;-74
2022/03/16 00:40:20;;;;;;;27.40;16.00;;;;;;;;;;5073544;27;95666;-74
2022/03/16 00:42:46;;;;;;;29.58;17.45;;;;;;;;;;5073244;27;96775;-74
2022/03/16 00:45:12;;;;;;;30.60;18.00;;;;;;;;;;5073461;27;97363;-75
2022/03/16 00:47:39;;;;;;;26.73;17.00;;;;;;;;;;5073827;27;95521;-74
2022/03/16 00:50:06;;;;;;;36.75;18.73;;;;;;;;;;5072915;27;96969;-74
2022/03/16 00:52:32;;;;;;;28.85;18.50;;;;;;;;;;5072234;27;96300;-74
2022/03/16 00:54:58;;;;;;;28.58;18.02;;;;;;;;;;5075766;27;95368;-75
2022/03/16 00:57:25;;;;;;;28.15;18.00;;;;;;;;;;5073537;27;97272;-74
2022/03/16 00:59:51;;;;;;;24.00;14.98;;;;;;;;;;5074064;27;94955;-74
2022/03/16 01:02:17;;;;;;;23.92;15.00;;;;;;;;;;5073117;27;96628;-74
2022/03/16 01:04:44;;;;;;;23.15;14.32;;;;;;;;;;5073089;27;97338;-74
2022/03/16 01:07:10;;;;;;;26.08;14.48;;;;;;;;;;5072500;27;95164;-74
2022/03/16 01:09:36;;;;;;;21.38;13.98;;;;;;;;;;5073808;27;95672;-76
2022/03/16 01:12:03;;;;;;;22.02;12.68;;;;;;;;;;5072287;27;97780;-76
2022/03/16 01:14:29;;;;;;;22.75;14.10;;;;;;;;;;5072805;27;95575;-75
2022/03/16 01:16:56;;;;;;;24.50;13.70;;;;;;;;;;5076727;27;97042;-74
2022/03/16 01:19:23;;;;;;;22.17;14.48;;;;;;;;;;5073407;27;95430;-74
2022/03/16 01:21:49;;;;;;;22.10;15.07;;;;;;;;;;5071954;27;96836;-74
2022/03/16 01:24:15;;;;;;;28.45;15.10;;;;;;;;;;5072845;27;97827;-74
2022/03/16 01:26:42;;;;;;;31.58;15.38;;;;;;;;;;5072458;27;95244;-74
2022/03/16 01:29:08;;;;;;;26.88;14.63;;;;;;;;;;5072690;27;96702;-74
2022/03/16 01:31:34;;;;;;;29.83;16.15;;;;;;;;;;5073341;27;97630;-74
2022/03/16 01:34:04;;;;;;;35.28;15.90;;;;;;;;;;5071649;27;95333;-73
2022/03/16 01:36:30;;;;;;;25.23;14.20;;;;;;;;;;5073130;27;96907;-73
2022/03/16 01:38:57;;;;;;;22.30;13.50;;;;;;;;;;5076534;27;97097;-74
2022/03/16 01:41:23;;;;;;;22.33;13.70;;;;;;;;;;5073442;27;96832;-73
2022/03/16 01:43:56;;;;;;;24.02;14.10;;;;;;;;;;5072647;27;98042;-73
2022/03/16 01:46:23;;;;;;;20.67;13.35;;;;;;;;;;5072650;27;95464;-73
2022/03/16 01:48:52;;;;;;;23.08;14.13;;;;;;;;;;5073576;27;96862;-74
2022/03/16 01:51:19;;;;;;;23.02;13.95;;;;;;;;;;5072367;27;97300;-75
2022/03/16 01:53:45;;;;;;;29.73;14.77;;;;;;;;;;5056877;27;95367;-74
2022/03/16 01:56:14;;;;;;;22.35;13.85;;;;;;;;;;5069539;27;96065;-73
2022/03/16 01:58:40;;;;;;;22.00;13.52;;;;;;;;;;5072106;27;97457;-73
2022/03/16 02:01:06;;;;;;;26.20;14.90;;;;;;;;;;5075781;27;95344;-73
2022/03/16 02:03:33;;;;;;;24.67;14.38;;;;;;;;;;5072458;27;97282;-74
2022/03/16 02:06:00;;;;;;;23.40;14.25;;;;;;;;;;5072307;27;95427;-74
2022/03/16 02:08:32;;;;;;;20.88;13.68;;;;;;;;;;5072677;27;96526;-73
2022/03/16 02:10:59;;;;;;;23.25;14.23;;;;;;;;;;5071898;27;97362;-73
2022/03/16 02:13:25;;;;;;;23.60;14.60;;;;;;;;;;5071516;27;95633;-73
2022/03/16 02:15:51;;;;;;;21.88;15.15;;;;;;;;;;5072317;27;96078;-73
2022/03/16 02:18:18;;;;;;;23.73;14.43;;;;;;;;;;5070488;27;96912;-73
2022/03/16 02:20:50;;;;;;;22.65;15.55;;;;;;;;;;5076657;27;95104;-73
2022/03/16 02:23:16;;;;;;;26.25;16.92;;;;;;;;;;5079209;27;96337;-73
2022/03/16 02:25:50;;;;;;;28.02;17.80;;;;;;;;;;5075810;27;95618;-73
2022/03/16 02:28:18;;;;;;;26.08;17.73;;;;;;;;;;5075488;27;96782;-73
2022/03/16 02:30:44;;;;;;;34.67;18.70;;;;;;;;;;5075608;27;97291;-74
2022/03/16 02:33:10;;;;;;;29.02;18.73;;;;;;;;;;5075745;27;95435;-73
2022/03/16 02:35:37;;;;;;;29.33;17.27;;;;;;;;;;5075486;27;97142;-73
2022/03/16 02:38:03;;;;;;;25.63;16.33;;;;;;;;;;5075171;27;97360;-74
2022/03/16 02:40:30;;;;;;;29.42;17.13;;;;;;;;;;5075572;27;95428;-73
2022/03/16 02:42:56;;;;;;;27.52;17.02;;;;;;;;;;5078440;27;96828;-74
2022/03/16 02:45:22;;;;;;;29.73;18.27;;;;;;;;;;5075591;27;95410;-74
2022/03/16 02:47:49;;;;;;;29.50;17.63;;;;;;;;;;5075752;27;96791;-73
2022/03/16 02:50:19;;;;;;;25.92;18.20;;;;;;;;;;5075127;27;96326;-74
2022/03/16 02:52:46;;;;;;;29.42;17.67;;;;;;;;;;5075452;27;95095;-74
2022/03/16 02:55:32;;;;;;;28.27;17.58;;;;;;;;;;5076165;27;98041;-74
2022/03/16 02:57:59;;;;;;;31.75;18.25;;;;;;;;;;5057089;27;96970;-74
2022/03/16 03:00:26;;;;;;;41.75;22.35;;;;;;;;;;5075134;27;95470;-74
2022/03/16 03:02:54;;;;;;;33.25;19.63;;;;;;;;;;5075643;27;96710;-74
2022/03/16 03:05:21;;;;;;;35.42;19.55;;;;;;;;;;5078460;27;97184;-75
2022/03/16 03:07:47;;;;;;;42.42;21.25;;;;;;;;;;5075413;27;96808;-74
2022/03/16 03:10:14;;;;;;;31.40;19.80;;;;;;;;;;5074972;27;97523;-73
2022/03/16 03:12:40;;;;;;;35.47;20.25;;;;;;;;;;5075451;27;95109;-73
2022/03/16 03:15:10;;;;;;;32.13;18.85;;;;;;;;;;5074830;27;96855;-73
2022/03/16 03:17:36;;;;;;;43.40;19.65;;;;;;;;;;5075599;27;97591;-73
2022/03/16 03:20:03;;;;;;;31.13;18.63;;;;;;;;;;5074818;27;95873;-74
2022/03/16 03:22:29;;;;;;;31.90;19.30;;;;;;;;;;5073723;27;97258;-74
2022/03/16 03:24:56;;;;;;;30.30;17.70;;;;;;;;;;5074832;27;97411;-73
2022/03/16 03:27:22;;;;;;;30.13;16.25;;;;;;;;;;5078185;27;95244;-74
2022/03/16 03:29:48;;;;;;;25.00;15.73;;;;;;;;;;5074414;27;97323;-73
2022/03/16 03:32:15;;;;;;;29.20;16.95;;;;;;;;;;5074695;27;95205;-76
2022/03/16 03:34:46;;;;;;;28.63;16.55;;;;;;;;;;5075236;27;96764;-74
2022/03/16 03:37:13;;;;;;;27.88;17.70;;;;;;;;;;5074178;27;97173;-74
2022/03/16 03:39:41;;;;;;;30.50;17.23;;;;;;;;;;5074220;27;95433;-74
2022/03/16 03:42:07;;;;;;;29.10;17.38;;;;;;;;;;5074301;27;97015;-74
2022/03/16 03:44:37;;;;;;;25.58;16.30;;;;;;;;;;5074230;27;97471;-73
2022/03/16 03:47:05;;;;;;;25.30;16.00;;;;;;;;;;5075476;27;96502;-74
2022/03/16 03:49:32;;;;;;;32.75;15.07;;;;;;;;;;5076904;27;95989;-73
2022/03/16 03:51:58;;;;;;;25.75;15.25;;;;;;;;;;5074451;27;95373;-74
2022/03/16 03:54:25;;;;;;;25.65;15.70;;;;;;;;;;5072961;27;96981;-73
2022/03/16 03:56:52;;;;;;;22.48;15.15;;;;;;;;;;5073225;27;97478;-74
2022/03/16 03:59:19;;;;;;;27.08;16.58;;;;;;;;;;5073876;27;95261;-73
2022/03/16 04:01:48;;;;;;;35.15;16.42;;;;;;;;;;5074501;27;96845;-73
2022/03/16 04:04:15;;;;;;;29.45;16.15;;;;;;;;;;5073407;27;97698;-76
2022/03/16 04:06:41;;;;;;;32.00;19.10;;;;;;;;;;5074633;27;95494;-73
2022/03/16 04:09:08;;;;;;;36.90;19.90;;;;;;;;;;5073807;27;96847;-74
2022/03/16 04:11:35;;;;;;;38.03;22.65;;;;;;;;;;5076823;27;96420;-73
2022/03/16 04:14:01;;;;;;;49.10;26.05;;;;;;;;;;5074353;27;97113;-74
2022/03/16 04:16:27;;;;;;;52.70;27.70;;;;;;;;;;5074383;27;97436;-74
2022/03/16 04:18:54;;;;;;;52.33;29.17;;;;;;;;;;5073563;27;95385;-74
2022/03/16 04:21:21;;;;;;;61.97;31.65;;;;;;;;;;5074198;27;96457;-74
2022/03/16 04:23:47;;;;;;;52.53;28.88;;;;;;;;;;5074260;27;97545;-74
2022/03/16 04:26:14;;;;;;;58.75;30.42;;;;;;;;;;5073542;27;95423;-74
2022/03/16 04:28:40;;;;;;;51.60;29.30;;;;;;;;;;5074387;27;96954;-74
2022/03/16 04:31:06;;;;;;;54.63;30.73;;;;;;;;;;5053186;27;97252;-73
2022/03/16 04:33:33;;;;;;;62.03;32.78;;;;;;;;;;5057335;27;95088;-74
2022/03/16 04:35:59;;;;;;;62.53;30.85;;;;;;;;;;5053085;27;97190;-74
2022/03/16 04:38:26;;;;;;;52.72;27.40;;;;;;;;;;5056829;27;95118;-74
2022/03/16 04:40:52;;;;;;;53.08;29.23;;;;;;;;;;5073420;27;95818;-74
2022/03/16 04:43:18;;;;;;;52.08;29.92;;;;;;;;;;5073272;27;97308;-74
2022/03/16 04:45:44;;;;;;;64.07;33.15;;;;;;;;;;5073443;27;95642;-74
2022/03/16 04:48:11;;;;;;;57.88;30.73;;;;;;;;;;5072569;27;96793;-74
2022/03/16 04:50:38;;;;;;;53.72;30.08;;;;;;;;;;5073681;27;97364;-74
2022/03/16 04:53:05;;;;;;;57.35;31.88;;;;;;;;;;5076189;27;95231;-74
2022/03/16 04:55:37;;;;;;;57.70;31.10;;;;;;;;;;5073755;27;97605;-77
2022/03/16 04:58:04;;;;;;;54.88;30.38;;;;;;;;;;5072758;27;95260;-74
2022/03/16 05:00:30;;;;;;;56.92;31.30;;;;;;;;;;5071933;27;97609;-75
2022/03/16 05:02:56;;;;;;;57.65;32.03;;;;;;;;;;5073836;27;97358;-75
2022/03/16 05:05:23;;;;;;;62.20;31.92;;;;;;;;;;5073701;27;95406;-75
2022/03/16 05:07:49;;;;;;;61.30;31.13;;;;;;;;;;5073037;27;96662;-75
2022/03/16 05:10:16;;;;;;;57.58;32.58;;;;;;;;;;5072885;27;97406;-75
2022/03/16 05:12:43;;;;;;;54.50;29.98;;;;;;;;;;5073876;27;96509;-75
2022/03/16 05:15:12;;;;;;;53.17;30.52;;;;;;;;;;5075719;27;97162;-74
2022/03/16 05:17:39;;;;;;;58.88;31.38;;;;;;;;;;5073667;27;95228;-75
2022/03/16 05:20:06;;;;;;;50.95;29.45;;;;;;;;;;5073036;27;96963;-74
2022/03/16 05:22:43;;;;;;;57.47;31.45;;;;;;;;;;5073041;27;97408;-75
2022/03/16 05:25:10;;;;;;;56.88;29.80;;;;;;;;;;5073111;27;95386;-75
2022/03/16 05:27:37;;;;;;;52.17;29.90;;;;;;;;;;5073209;27;96760;-75
2022/03/16 05:30:04;;;;;;;51.38;29.52;;;;;;;;;;5072481;27;97328;-75
2022/03/16 05:32:30;;;;;;;53.58;30.45;;;;;;;;;;5069671;27;95473;-75
2022/03/16 18:36:41;;;;;;;15.77;10.18;;;;;;;;;;5038143;27;95638;-74
2022/03/16 18:39:08;;;;;;;16.92;9.13;;;;;;;;;;5032042;27;97131;-74
2022/03/16 18:41:35;;;;;;;22.35;10.40;;;;;;;;;;5025794;27;96785;-75
2022/03/16 18:44:03;;;;;;;18.67;10.50;;;;;;;;;;5024189;28;96658;-75
2022/03/16 18:46:30;;;;;;;17.00;10.35;;;;;;;;;;5037746;27;96305;-74
2022/03/16 18:48:57;;;;;;;21.90;10.88;;;;;;;;;;5025411;27;95468;-75
2022/03/16 18:51:35;;;;;;;21.20;11.30;;;;;;;;;;5021662;28;96803;-74
2022/03/16 18:54:06;;;;;;;18.85;10.85;;;;;;;;;;5019456;27;97304;-74
2022/03/16 18:56:32;;;;;;;16.30;10.70;;;;;;;;;;5048122;27;95745;-74
2022/03/16 18:58:59;;;;;;;16.40;10.75;;;;;;;;;;5044875;27;97660;-75
2022/03/16 19:01:27;;;;;;;16.10;10.18;;;;;;;;;;5016523;27;96968;-74
2022/03/16 19:03:54;;;;;;;16.45;10.25;;;;;;;;;;5023160;27;96422;-74
2022/03/16 19:06:23;;;;;;;16.40;10.38;;;;;;;;;;5024860;27;97449;-75
2022/03/16 19:08:49;;;;;;;20.08;10.48;;;;;;;;;;5025008;28;95487;-75
2022/03/16 19:14:01;;;;;;;19.45;10.15;;;;;;;;;;5018510;27;97251;-75
2022/03/16 19:16:38;;;;;;;16.92;10.38;;;;;;;;;;5004924;28;96860;-75
2022/03/16 19:19:05;;;;;;;16.65;10.95;;;;;;;;;;5013983;28;96788;-75
2022/03/16 19:21:31;;;;;;;17.00;10.00;;;;;;;;;;5022519;28;95634;-74
2022/03/16 19:23:58;;;;;;;18.42;10.43;;;;;;;;;;5013382;28;96788;-74
2022/03/16 19:26:26;;;;;;;15.80;10.50;;;;;;;;;;5042068;27;97468;-74
2022/03/16 19:28:55;;;;;;;14.50;9.90;;;;;;;;;;5042376;27;95354;-74
2022/03/16 19:31:21;;;;;;;14.60;10.48;;;;;;;;;;5017913;28;96688;-74
2022/03/16 19:33:48;;;;;;;20.35;10.52;;;;;;;;;;5007227;28;97582;-73
2022/03/16 19:36:15;;;;;;;17.38;10.38;;;;;;;;;;5027336;27;95564;-74
2022/03/16 19:38:42;;;;;;;14.88;10.63;;;;;;;;;;5024338;28;95870;-73
2022/03/16 19:41:09;;;;;;;16.63;10.48;;;;;;;;;;5027220;28;97366;-74
2022/03/16 19:43:36;;;;;;;15.40;10.45;;;;;;;;;;5023854;28;96814;-74
2022/03/16 19:46:02;;;;;;;19.10;10.85;;;;;;;;;;5020586;27;97347;-73
2022/03/16 19:48:29;;;;;;;17.00;10.70;;;;;;;;;;5009394;28;95267;-74
2022/03/16 19:50:57;;;;;;;14.80;10.23;;;;;;;;;;5004531;28;96424;-74
2022/03/16 19:53:24;;;;;;;17.80;11.20;;;;;;;;;;5009042;28;97392;-74
2022/03/16 19:55:51;;;;;;;17.15;11.55;;;;;;;;;;5011105;28;95501;-75
2022/03/16 19:58:19;;;;;;;16.48;11.63;;;;;;;;;;5003330;28;96838;-75
2022/03/16 20:00:46;;;;;;;17.55;11.38;;;;;;;;;;5003277;28;97412;-75
2022/03/16 20:03:13;;;;;;;16.42;10.77;;;;;;;;;;5014476;28;95405;-75
2022/03/16 20:05:50;;;;;;;21.48;11.65;;;;;;;;;;5020619;28;97460;-75
2022/03/16 20:08:16;;;;;;;17.25;10.95;;;;;;;;;;5010152;28;96581;-74
2022/03/16 20:10:43;;;;;;;16.92;11.55;;;;;;;;;;5010195;28;96856;-75
2022/03/16 20:13:10;;;;;;;18.52;12.20;;;;;;;;;;5009627;28;96789;-75
2022/03/16 20:15:37;;;;;;;19.45;11.32;;;;;;;;;;5003198;28;95372;-74
2022/03/16 20:18:03;;;;;;;17.60;12.10;;;;;;;;;;5011394;28;96829;-75
2022/03/16 20:20:30;;;;;;;23.55;11.38;;;;;;;;;;5009186;28;97433;-74
2022/03/16 20:22:56;;;;;;;20.85;12.50;;;;;;;;;;5008155;28;95946;-75
2022/03/16 20:25:22;;;;;;;20.15;11.73;;;;;;;;;;5014007;28;96794;-75
2022/03/16 20:27:49;;;;;;;19.00;12.10;;;;;;;;;;5031382;27;96635;-75
2022/03/16 20:30:15;;;;;;;18.77;12.10;;;;;;;;;;5025197;28;97062;-76
2022/03/16 20:32:41;;;;;;;19.42;12.27;;;;;;;;;;5008961;28;96175;-73
2022/03/16 20:35:08;;;;;;;18.88;12.43;;;;;;;;;;5008847;28;95604;-73
2022/03/16 20:37:34;;;;;;;17.90;12.13;;;;;;;;;;5010046;28;95492;-73
2022/03/16 20:40:00;;;;;;;17.98;12.25;;;;;;;;;;5003377;28;97350;-73
2022/03/16 20:42:27;;;;;;;17.50;12.13;;;;;;;;;;5008041;28;96012;-75
2022/03/16 20:44:54;;;;;;;18.85;12.85;;;;;;;;;;4992249;28;96854;-73
2022/03/16 20:47:20;;;;;;;21.98;13.38;;;;;;;;;;5007407;28;95204;-73
2022/03/16 20:49:46;;;;;;;18.55;11.90;;;;;;;;;;5008837;28;96773;-73
2022/03/16 20:52:13;;;;;;;20.48;13.05;;;;;;;;;;5010251;28;97433;-75
2022/03/16 20:54:41;;;;;;;23.42;12.52;;;;;;;;;;4998774;28;95499;-75
2022/03/16 20:57:07;;;;;;;21.33;13.32;;;;;;;;;;5009838;28;96864;-75
2022/03/16 21:02:19;;;;;;;18.02;12.48;;;;;;;;;;5008610;28;95277;-75
2022/03/16 21:04:49;;;;;;;20.15;13.27;;;;;;;;;;5002093;28;96078;-75
2022/03/16 21:07:17;;;;;;;20.83;13.00;;;;;;;;;;5020282;27;97265;-75
2022/03/16 21:09:48;;;;;;;21.10;13.13;;;;;;;;;;5010113;28;96685;-75
2022/03/16 21:12:14;;;;;;;19.55;13.40;;;;;;;;;;5008092;28;96311;-75
2022/03/16 21:14:42;;;;;;;23.08;13.23;;;;;;;;;;5007618;28;97234;-74
2022/03/16 21:17:09;;;;;;;24.98;14.57;;;;;;;;;;5003453;28;95922;-75
2022/03/16 21:19:36;;;;;;;22.00;14.25;;;;;;;;;;5006738;28;97237;-75
2022/03/16 21:22:03;;;;;;;19.33;13.70;;;;;;;;;;5009475;28;95500;-75
2022/03/16 21:24:31;;;;;;;24.27;14.88;;;;;;;;;;5003027;28;97738;-74
2022/03/16 21:27:00;;;;;;;21.02;14.55;;;;;;;;;;5007337;28;96213;-75
2022/03/16 21:29:26;;;;;;;22.63;14.15;;;;;;;;;;5012456;28;95472;-74
2022/03/16 21:31:53;;;;;;;20.70;14.73;;;;;;;;;;5001045;28;97646;-74
2022/03/16 21:34:19;;;;;;;21.23;14.77;;;;;;;;;;5009280;28;96633;-75
2022/03/16 21:36:45;;;;;;;20.85;14.63;;;;;;;;;;5008104;28;95595;-74
2022/03/16 21:39:13;;;;;;;24.65;14.35;;;;;;;;;;5005227;28;97150;-74
2022/03/16 21:47:11;;;;;;;26.20;15.07;;;;;;;;;;5003931;28;96735;-75
2022/03/16 21:49:47;;;;;;;24.83;15.85;;;;;;;;;;5007592;28;95868;-74
2022/03/16 21:52:15;;;;;;;22.13;15.23;;;;;;;;;;5000801;28;96811;-73
2022/03/16 21:54:44;;;;;;;24.23;16.27;;;;;;;;;;5010447;28;95433;-74
2022/03/16 21:57:11;;;;;;;24.65;16.10;;;;;;;;;;5010367;28;96397;-75
2022/03/16 21:59:38;;;;;;;21.65;15.30;;;;;;;;;;5009835;28;97622;-74
2022/03/16 22:02:06;;;;;;;22.95;16.17;;;;;;;;;;5010743;28;96291;-74
2022/03/16 22:04:33;;;;;;;27.65;15.45;;;;;;;;;;5009910;28;96762;-74
2022/03/16 22:06:59;;;;;;;22.17;15.80;;;;;;;;;;5009496;28;97338;-75
2022/03/16 22:09:26;;;;;;;23.80;15.32;;;;;;;;;;5013993;28;95702;-74
2022/03/16 22:11:53;;;;;;;23.42;14.65;;;;;;;;;;5008950;28;96690;-74
2022/03/16 22:14:26;;;;;;;24.65;15.90;;;;;;;;;;5013229;28;97758;-75
2022/03/16 22:16:55;;;;;;;23.77;16.40;;;;;;;;;;5020957;28;97547;-74
2022/03/16 22:19:27;;;;;;;24.63;15.45;;;;;;;;;;5009803;28;99074;-75
2022/03/16 22:21:56;;;;;;;25.15;16.40;;;;;;;;;;5009759;28;95618;-75
2022/03/16 22:24:49;;;;;;;24.60;15.57;;;;;;;;;;5008388;28;95650;-73
2022/03/16 22:27:21;;;;;;;25.20;15.32;;;;;;;;;;5009205;28;96710;-75
2022/03/16 22:29:51;;;;;;;30.95;16.15;;;;;;;;;;5010522;28;96733;-74
2022/03/16 22:32:17;;;;;;;25.55;16.25;;;;;;;;;;5009907;28;97252;-74
2022/03/16 22:34:46;;;;;;;27.90;16.15;;;;;;;;;;5009039;28;96728;-74
2022/03/16 22:37:13;;;;;;;23.58;16.38;;;;;;;;;;5013331;28;96127;-74
2022/03/16 22:39:45;;;;;;;;;;;;;;;;;;5010456;28;98081;-73
2022/03/16 22:42:11;;;;;;;26.58;16.02;;;;;;;;;;5009078;28;118320;-74
2022/03/16 22:44:40;;;;;;;22.98;15.98;;;;;;;;;;5009862;28;99738;-74
2022/03/16 22:47:06;;;;;;;26.02;16.48;;;;;;;;;;5010793;28;97706;-74
2022/03/16 22:49:33;;;;;;;25.60;16.98;;;;;;;;;;5009765;28;95520;-74
2022/03/16 22:52:00;;;;;;;27.40;16.67;;;;;;;;;;5009885;28;95841;-74
2022/03/16 22:54:29;;;;;;;24.27;17.00;;;;;;;;;;5009261;28;97111;-74
2022/03/16 22:56:56;;;;;;;24.55;16.33;;;;;;;;;;5012639;28;95424;-74
2022/03/16 22:59:23;;;;;;;25.02;16.58;;;;;;;;;;5009527;28;97386;-75
2022/03/16 23:01:51;;;;;;;29.00;16.73;;;;;;;;;;5009840;28;95573;-74
2022/03/16 23:04:17;;;;;;;27.25;18.15;;;;;;;;;;5007509;28;96935;-75
2022/03/16 23:06:43;;;;;;;24.02;16.90;;;;;;;;;;5009595;28;97528;-74
2022/03/16 23:09:09;;;;;;;31.17;17.65;;;;;;;;;;5009506;28;95645;-73
2022/03/16 23:11:36;;;;;;;28.88;17.38;;;;;;;;;;5008870;28;95804;-75
2022/03/16 23:14:02;;;;;;;23.95;16.80;;;;;;;;;;5008854;28;97417;-75
2022/03/16 23:16:28;;;;;;;29.80;17.25;;;;;;;;;;5009157;28;95346;-73
2022/03/16 23:18:55;;;;;;;28.83;17.58;;;;;;;;;;5012090;28;95866;-75
2022/03/16 23:21:21;;;;;;;24.73;16.63;;;;;;;;;;5009927;28;95459;-75
2022/03/16 23:23:47;;;;;;;29.85;17.52;;;;;;;;;;5012319;28;96888;-73
2022/03/16 23:26:15;;;;;;;24.17;16.38;;;;;;;;;;5012023;28;97331;-73
2022/03/16 23:28:41;;;;;;;26.60;16.83;;;;;;;;;;5017698;28;95585;-74
2022/03/16 23:31:08;;;;;;;25.58;17.10;;;;;;;;;;5032536;28;96950;-74
2022/03/16 23:33:36;;;;;;;24.33;17.30;;;;;;;;;;5013818;28;97581;-75
2022/03/16 23:36:03;;;;;;;25.95;17.05;;;;;;;;;;5011921;28;95483;-74
2022/03/16 23:38:30;;;;;;;24.75;16.90;;;;;;;;;;5012330;28;96894;-74
2022/03/16 23:40:56;;;;;;;25.25;16.60;;;;;;;;;;5015935;28;96999;-73
2022/03/16 23:43:22;;;;;;;23.58;16.67;;;;;;;;;;5011061;28;96583;-73
2022/03/16 23:45:49;;;;;;;28.58;17.52;;;;;;;;;;5011565;28;97229;-73
2022/03/16 23:48:15;;;;;;;27.48;17.60;;;;;;;;;;5012526;28;95526;-74
2022/03/16 23:50:42;;;;;;;32.97;17.67;;;;;;;;;;5012701;28;96984;-74
2022/03/16 23:53:08;;;;;;;25.85;17.58;;;;;;;;;;5011475;28;97783;-74
2022/03/16 23:55:34;;;;;;;26.13;16.60;;;;;;;;;;5012096;28;95531;-73
2022/03/16 23:58:00;;;;;;;26.52;17.98;;;;;;;;;;5012587;28;96936;-74
